createdAt,value
2022-12-18T00:00:11.166Z,62.95
2022-12-18T00:02:41.701Z,74.65
2022-12-18T00:05:09.156Z,60.67
2022-12-18T00:07:36.826Z,53.83
2022-12-18T00:10:04.945Z,59.30
2022-12-18T00:12:31.892Z,62.92
2022-12-18T00:14:58.919Z,62.28
2022-12-18T00:17:25.817Z,66.07
2022-12-18T00:19:52.847Z,65.75
2022-12-18T00:22:19.753Z,59.17
2022-12-18T00:24:46.706Z,62.28
2022-12-18T00:27:13.685Z,61.60
2022-12-18T00:29:40.618Z,62.47
2022-12-18T00:32:07.941Z,79.70
2022-12-18T00:34:35.226Z,60.38
2022-12-18T00:37:02.357Z,62.45
2022-12-18T00:39:29.310Z,75.82
2022-12-18T00:42:14.626Z,69.10
2022-12-18T00:44:41.610Z,59.70
2022-12-18T00:47:08.537Z,70.22
2022-12-18T00:49:36.298Z,58.90
2022-12-18T00:52:03.647Z,70.57
2022-12-18T00:54:30.615Z,72.60
2022-12-18T00:56:57.552Z,61.33
2022-12-18T00:59:24.516Z,75.55
2022-12-18T01:01:51.566Z,77.07
2022-12-18T01:04:20.537Z,59.45
2022-12-18T01:06:47.537Z,67.47
2022-12-18T01:09:14.610Z,69.82
2022-12-18T01:11:41.707Z,70.68
2022-12-18T01:14:08.933Z,65.57
2022-12-18T01:16:38.232Z,71.38
2022-12-18T01:19:05.338Z,60.80
2022-12-18T01:21:32.406Z,69.88
2022-12-18T01:24:04.815Z,63.90
2022-12-18T01:26:31.842Z,63.92
2022-12-18T01:28:59.362Z,58.85
2022-12-18T01:31:32.925Z,57.55
2022-12-18T01:34:05.128Z,62.85
2022-12-18T01:36:36.111Z,53.50
2022-12-18T01:39:10.934Z,65.72
2022-12-18T01:41:57.710Z,61.38
2022-12-18T01:45:03.757Z,54.50
2022-12-18T01:47:48.261Z,65.35
2022-12-18T01:50:37.848Z,55.50
2022-12-18T01:53:15.453Z,53.35
2022-12-18T01:55:53.769Z,51.22
2022-12-18T01:58:31.643Z,53.75
2022-12-18T02:00:59.057Z,52.63
2022-12-18T02:03:26.347Z,57.03
2022-12-18T02:05:57.514Z,50.83
2022-12-18T02:08:40.500Z,51.15
2022-12-18T02:11:37.645Z,49.70
2022-12-18T02:14:40.365Z,50.97
2022-12-18T02:17:30.726Z,49.28
2022-12-18T02:20:19.477Z,54.22
2022-12-18T02:23:13.731Z,54.00
2022-12-18T02:26:11.159Z,54.80
2022-12-18T02:28:46.459Z,48.28
2022-12-18T02:31:25.262Z,47.40
2022-12-18T02:34:04.058Z,52.88
2022-12-18T02:36:40.146Z,55.00
2022-12-18T02:39:11.427Z,48.42
2022-12-18T02:41:43.952Z,52.88
2022-12-18T02:44:14.175Z,53.78
2022-12-18T02:46:50.083Z,45.58
2022-12-18T02:49:30.657Z,49.15
2022-12-18T02:52:36.598Z,48.08
2022-12-18T02:55:29.416Z,48.35
2022-12-18T02:58:15.903Z,47.22
2022-12-18T03:00:55.034Z,48.45
2022-12-18T03:03:37.551Z,47.30
2022-12-18T03:06:16.173Z,46.45
2022-12-18T03:08:53.955Z,45.92
2022-12-18T03:11:41.022Z,46.38
2022-12-18T03:14:09.050Z,43.90
2022-12-18T03:16:38.502Z,51.22
2022-12-18T03:19:13.421Z,50.90
2022-12-18T03:21:49.311Z,58.85
2022-12-18T03:24:20.036Z,62.55
2022-12-18T03:26:53.932Z,60.83
2022-12-18T03:29:31.104Z,61.55
2022-12-18T03:32:08.834Z,52.38
2022-12-18T03:34:39.635Z,59.42
2022-12-18T03:37:08.681Z,57.92
2022-12-18T03:39:37.650Z,59.20
2022-12-18T03:42:37.349Z,55.95
2022-12-18T03:45:35.061Z,49.45
2022-12-18T03:48:21.267Z,56.30
2022-12-18T03:50:57.478Z,49.30
2022-12-18T03:53:27.797Z,54.25
2022-12-18T03:55:56.251Z,53.00
2022-12-18T03:58:30.025Z,52.85
2022-12-18T04:01:17.270Z,48.55
2022-12-18T04:03:48.046Z,51.03
2022-12-18T04:06:17.417Z,51.45
2022-12-18T04:08:47.745Z,48.00
2022-12-18T04:11:18.305Z,51.15
2022-12-18T04:13:47.631Z,51.67
2022-12-18T04:16:22.400Z,48.67
2022-12-18T04:18:53.864Z,50.88
2022-12-18T04:21:22.390Z,47.47
2022-12-18T04:23:50.411Z,47.42
2022-12-18T04:26:20.227Z,47.92
2022-12-18T04:29:00.242Z,47.75
2022-12-18T04:31:28.807Z,46.00
2022-12-18T04:33:56.535Z,50.80
2022-12-18T04:36:24.024Z,46.78
2022-12-18T04:38:51.420Z,48.60
2022-12-18T04:41:18.918Z,44.60
2022-12-18T04:43:48.416Z,44.85
2022-12-18T04:46:15.589Z,44.85
2022-12-18T04:48:42.691Z,41.20
2022-12-18T04:51:09.704Z,45.25
2022-12-18T04:53:36.985Z,46.38
2022-12-18T04:56:11.622Z,42.53
2022-12-18T04:58:41.019Z,44.58
2022-12-18T05:01:08.825Z,44.90
2022-12-18T05:03:37.841Z,43.85
2022-12-18T05:06:07.124Z,41.50
2022-12-18T05:08:35.068Z,41.92
2022-12-18T05:11:06.117Z,42.15
2022-12-18T05:13:34.340Z,41.17
2022-12-18T05:16:01.781Z,38.17
2022-12-18T05:18:30.131Z,38.72
2022-12-18T05:20:57.607Z,39.55
2022-12-18T05:23:26.136Z,38.17
2022-12-18T05:26:03.219Z,39.10
2022-12-18T05:28:32.627Z,37.22
2022-12-18T05:31:03.312Z,36.75
2022-12-18T05:33:34.167Z,35.53
2022-12-18T05:36:08.085Z,34.53
2022-12-18T05:38:39.126Z,36.75
2022-12-18T05:41:08.042Z,35.33
2022-12-18T05:43:38.204Z,33.97
2022-12-18T05:46:08.162Z,37.83
2022-12-18T05:48:35.298Z,34.63
2022-12-18T05:51:12.335Z,33.90
2022-12-18T05:53:40.287Z,32.28
2022-12-18T05:56:12.238Z,33.35
2022-12-18T05:58:39.705Z,31.95
2022-12-18T06:01:13.960Z,34.50
2022-12-18T06:03:41.630Z,35.33
2022-12-18T06:06:15.764Z,32.08
2022-12-18T06:08:46.207Z,36.33
2022-12-18T06:11:14.608Z,30.95
2022-12-18T06:13:41.752Z,36.10
2022-12-18T06:16:09.433Z,34.58
2022-12-18T06:18:39.302Z,36.28
2022-12-18T06:21:06.513Z,35.90
2022-12-18T06:23:33.779Z,38.58
2022-12-18T06:26:09.192Z,38.90
2022-12-18T06:28:36.400Z,35.33
2022-12-18T06:31:07.227Z,36.78
2022-12-18T06:33:35.222Z,37.63
2022-12-18T06:36:09.004Z,35.72
2022-12-18T06:38:39.722Z,34.90
2022-12-18T06:41:16.614Z,35.60
2022-12-18T06:43:44.823Z,35.58
2022-12-18T06:46:13.482Z,36.45
2022-12-18T06:48:41.173Z,35.58
2022-12-18T06:51:08.756Z,37.28
2022-12-18T06:53:35.735Z,36.15
2022-12-18T06:56:09.863Z,34.78
2022-12-18T06:58:40.193Z,39.75
2022-12-18T07:01:11.765Z,37.00
2022-12-18T07:03:44.014Z,38.15
2022-12-18T07:06:21.352Z,37.50
2022-12-18T07:08:50.833Z,37.17
2022-12-18T07:11:19.653Z,36.72
2022-12-18T07:13:47.411Z,38.65
2022-12-18T07:16:25.311Z,39.15
2022-12-18T07:18:55.490Z,38.88
2022-12-18T07:21:24.710Z,38.85
2022-12-18T07:23:51.722Z,38.25
2022-12-18T07:26:21.539Z,37.72
2022-12-18T07:28:49.472Z,38.65
2022-12-18T07:31:22.670Z,36.88
2022-12-18T07:33:51.229Z,35.42
2022-12-18T07:36:18.859Z,35.88
2022-12-18T07:38:49.272Z,37.75
2022-12-18T07:41:17.088Z,35.70
2022-12-18T07:43:44.549Z,35.60
2022-12-18T07:46:14.888Z,38.75
2022-12-18T07:48:43.673Z,33.83
2022-12-18T07:51:14.199Z,34.75
2022-12-18T07:53:42.843Z,35.05
2022-12-18T07:56:29.979Z,34.55
2022-12-18T07:58:59.392Z,34.72
2022-12-18T08:01:26.859Z,35.72
2022-12-18T08:03:54.246Z,39.38
2022-12-18T08:06:23.830Z,36.80
2022-12-18T08:08:53.859Z,39.55
2022-12-18T08:11:20.905Z,37.70
2022-12-18T08:13:48.806Z,36.53
2022-12-18T08:16:16.975Z,33.47
2022-12-18T08:18:44.044Z,37.30
2022-12-18T08:21:14.515Z,34.88
2022-12-18T08:23:43.348Z,33.47
2022-12-18T08:26:12.007Z,34.17
2022-12-18T08:28:39.465Z,34.47
2022-12-18T08:31:07.631Z,38.15
2022-12-18T08:33:36.275Z,37.22
2022-12-18T08:36:06.875Z,38.10
2022-12-18T08:38:34.577Z,37.35
2022-12-18T08:41:09.079Z,37.53
2022-12-18T08:43:54.885Z,37.53
2022-12-18T08:46:23.751Z,37.42
2022-12-18T08:48:56.920Z,36.22
2022-12-18T08:51:23.935Z,36.55
2022-12-18T08:53:50.932Z,36.03
2022-12-18T08:56:17.983Z,35.33
2022-12-18T08:58:45.113Z,35.50
2022-12-18T09:01:13.421Z,32.78
2022-12-18T09:03:40.863Z,32.55
2022-12-18T09:06:08.612Z,34.63
2022-12-18T09:08:36.000Z,36.03
2022-12-18T09:11:03.087Z,36.97
2022-12-18T09:13:30.115Z,32.38
2022-12-18T09:15:57.357Z,33.83
2022-12-18T09:18:25.395Z,34.63
2022-12-18T09:20:54.041Z,36.33
2022-12-18T09:23:22.337Z,35.42
2022-12-18T09:25:49.538Z,36.30
2022-12-18T09:28:20.302Z,35.85
2022-12-18T09:30:50.756Z,38.35
2022-12-18T09:33:18.279Z,35.83
2022-12-18T09:35:47.047Z,33.70
2022-12-18T09:38:19.104Z,34.90
2022-12-18T09:40:56.008Z,36.92
2022-12-18T09:43:31.465Z,34.55
2022-12-18T09:46:06.426Z,36.88
2022-12-18T09:48:41.966Z,36.33
2022-12-18T09:51:30.248Z,33.42
2022-12-18T09:54:07.955Z,37.22
2022-12-18T09:56:42.643Z,36.22
2022-12-18T09:59:24.833Z,34.55
2022-12-18T10:01:52.447Z,37.92
2022-12-18T10:04:20.023Z,39.22
2022-12-18T10:07:34.019Z,36.30
2022-12-18T10:10:14.723Z,38.08
2022-12-18T10:13:04.744Z,32.33
2022-12-18T10:15:45.259Z,34.80
2022-12-18T10:18:49.556Z,35.05
2022-12-18T10:21:33.750Z,35.67
2022-12-18T10:24:30.564Z,34.35
2022-12-18T10:27:16.203Z,35.42
2022-12-18T10:29:47.182Z,35.08
2022-12-18T10:32:29.997Z,38.53
2022-12-18T10:35:00.842Z,36.65
2022-12-18T10:37:30.924Z,35.20
2022-12-18T10:40:22.377Z,37.78
2022-12-18T10:43:07.465Z,35.42
2022-12-18T10:45:35.097Z,34.22
2022-12-18T10:48:02.249Z,33.05
2022-12-18T10:51:09.601Z,33.53
2022-12-18T10:53:31.172Z,32.47
2022-12-18T10:56:00.943Z,32.47
2022-12-18T10:58:40.537Z,34.25
2022-12-18T11:01:10.163Z,33.22
2022-12-18T11:04:09.649Z,35.08
2022-12-18T11:07:04.468Z,34.30
2022-12-18T11:09:34.479Z,32.17
2022-12-18T11:12:09.919Z,34.08
2022-12-18T11:14:46.761Z,36.60
2022-12-18T11:17:33.604Z,35.70
2022-12-18T11:20:05.441Z,35.08
2022-12-18T11:22:36.473Z,30.17
2022-12-18T11:25:33.225Z,32.65
2022-12-18T11:28:07.452Z,31.08
2022-12-18T11:30:37.522Z,33.05
2022-12-18T11:33:20.422Z,35.03
2022-12-18T11:36:05.902Z,33.80
2022-12-18T11:38:43.826Z,33.42
2022-12-18T11:41:54.188Z,33.38
2022-12-18T11:44:41.112Z,33.83
2022-12-18T11:47:29.395Z,35.33
2022-12-18T11:50:01.513Z,29.20
2022-12-18T11:52:39.424Z,34.65
2022-12-18T11:55:32.588Z,30.98
2022-12-18T11:58:16.685Z,33.60
2022-12-18T12:01:19.896Z,34.78
2022-12-18T12:04:01.976Z,34.83
2022-12-18T12:07:26.279Z,34.90
2022-12-18T12:13:50.108Z,33.35
2022-12-18T12:16:24.878Z,30.55
2022-12-18T12:19:48.468Z,35.15
2022-12-18T12:22:33.722Z,35.25
2022-12-18T12:25:28.027Z,33.55
2022-12-18T12:27:57.736Z,32.33
2022-12-18T12:30:42.307Z,34.00
2022-12-18T12:36:27.322Z,35.28
2022-12-18T12:38:59.661Z,32.97
2022-12-18T12:41:53.007Z,32.58
2022-12-18T12:44:28.714Z,34.22
2022-12-18T12:47:08.670Z,35.45
2022-12-18T12:52:38.922Z,32.30
2022-12-18T12:55:28.315Z,36.85
2022-12-18T12:58:39.766Z,36.20
2022-12-18T13:01:34.351Z,34.28
2022-12-18T13:04:21.676Z,33.65
2022-12-18T13:06:59.884Z,33.55
2022-12-18T13:09:36.875Z,35.30
2022-12-18T13:12:35.060Z,34.78
2022-12-18T13:15:23.882Z,35.50
2022-12-18T13:18:06.291Z,35.22
2022-12-18T13:20:52.436Z,31.25
2022-12-18T13:23:25.763Z,32.83
2022-12-18T13:26:22.071Z,33.53
2022-12-18T13:28:57.908Z,37.33
2022-12-18T13:31:40.168Z,37.42
2022-12-18T13:34:27.872Z,35.88
2022-12-18T13:37:00.503Z,33.10
2022-12-18T13:39:35.886Z,31.92
2022-12-18T13:42:06.074Z,33.50
2022-12-18T13:44:40.663Z,32.03
2022-12-18T13:47:41.260Z,32.70
2022-12-18T13:50:32.466Z,33.03
2022-12-18T13:53:06.290Z,36.75
2022-12-18T13:55:33.866Z,34.97
2022-12-18T13:58:07.880Z,36.38
2022-12-18T14:00:45.947Z,34.10
2022-12-18T14:03:32.664Z,39.85
2022-12-18T14:06:09.264Z,36.60
2022-12-18T14:08:41.676Z,34.17
2022-12-18T14:11:22.151Z,33.10
2022-12-18T14:13:51.184Z,33.17
2022-12-18T14:16:18.929Z,32.80
2022-12-18T14:19:08.419Z,31.27
2022-12-18T14:21:50.729Z,35.60
2022-12-18T14:24:22.175Z,34.08
2022-12-18T14:26:51.421Z,36.72
2022-12-18T14:29:28.863Z,34.78
2022-12-18T14:32:17.062Z,34.55
2022-12-18T14:34:55.040Z,35.95
2022-12-18T14:37:28.104Z,36.60
2022-12-18T14:40:10.879Z,37.60
2022-12-18T14:42:38.777Z,38.97
2022-12-18T14:45:40.991Z,41.80
2022-12-18T14:48:55.519Z,39.10
2022-12-18T14:51:26.961Z,35.97
2022-12-18T14:54:03.777Z,38.17
2022-12-18T14:56:38.214Z,37.85
2022-12-18T14:59:24.992Z,37.40
2022-12-18T15:02:16.521Z,38.05
2022-12-18T15:04:45.028Z,39.22
2022-12-18T15:07:12.124Z,39.53
2022-12-18T15:09:41.834Z,39.03
2022-12-18T15:12:33.865Z,36.92
2022-12-18T15:15:01.196Z,39.33
2022-12-18T15:17:28.445Z,38.85
2022-12-18T15:20:03.677Z,38.80
2022-12-18T15:22:35.302Z,37.47
2022-12-18T15:25:05.329Z,38.45
2022-12-18T15:27:38.855Z,38.00
2022-12-18T15:30:09.052Z,40.60
2022-12-18T15:32:38.616Z,41.58
2022-12-18T15:35:11.962Z,36.13
2022-12-18T15:37:39.509Z,37.40
2022-12-18T15:40:13.840Z,39.65
2022-12-18T15:42:59.485Z,37.38
2022-12-18T15:45:26.779Z,34.20
2022-12-18T15:47:54.016Z,35.78
2022-12-18T15:50:22.357Z,36.78
2022-12-18T15:52:52.743Z,35.45
2022-12-18T15:55:44.186Z,35.33
2022-12-18T15:58:13.533Z,36.08
2022-12-18T16:00:42.172Z,36.42
2022-12-18T16:03:10.329Z,34.00
2022-12-18T16:05:37.566Z,35.55
2022-12-18T16:08:04.745Z,35.75
2022-12-18T16:10:32.098Z,37.50
2022-12-18T16:12:59.242Z,35.58
2022-12-18T16:15:26.159Z,35.17
2022-12-18T16:17:53.223Z,36.00
2022-12-18T16:20:23.143Z,34.50
2022-12-18T16:22:50.839Z,30.27
2022-12-18T16:25:22.619Z,34.75
2022-12-18T16:27:50.422Z,33.92
2022-12-18T16:30:25.182Z,34.85
2022-12-18T16:32:53.024Z,35.08
2022-12-18T16:35:19.927Z,34.95
2022-12-18T16:37:46.962Z,36.05
2022-12-18T16:40:17.817Z,35.30
2022-12-18T16:42:47.189Z,35.13
2022-12-18T16:45:18.593Z,35.67
2022-12-18T16:47:46.312Z,35.53
2022-12-18T16:50:13.541Z,34.63
2022-12-18T16:52:40.816Z,37.05
2022-12-18T16:55:09.372Z,35.40
2022-12-18T16:57:36.486Z,35.15
2022-12-18T17:00:06.188Z,33.70
2022-12-18T17:02:34.105Z,35.60
2022-12-18T17:05:01.380Z,36.42
2022-12-18T17:07:29.464Z,35.47
2022-12-18T17:09:57.195Z,32.05
2022-12-18T17:12:24.455Z,35.92
2022-12-18T17:14:51.482Z,36.65
2022-12-18T17:17:21.844Z,36.95
2022-12-18T17:19:50.712Z,38.67
2022-12-18T17:22:18.265Z,39.33
2022-12-18T17:24:46.885Z,36.55
2022-12-18T17:27:14.170Z,34.92
2022-12-18T17:29:47.219Z,34.67
2022-12-18T17:32:17.945Z,36.47
2022-12-18T17:34:45.494Z,36.55
2022-12-18T17:37:13.252Z,38.55
2022-12-18T17:39:40.737Z,35.00
2022-12-18T17:42:10.896Z,35.35
2022-12-18T17:44:42.544Z,35.00
2022-12-18T17:47:12.022Z,32.17
2022-12-18T17:49:39.541Z,33.35
2022-12-18T17:52:06.940Z,33.42
2022-12-18T17:54:33.885Z,32.47
2022-12-18T17:57:00.869Z,32.45
2022-12-18T17:59:27.900Z,33.30
2022-12-18T18:01:55.068Z,33.80
2022-12-18T18:04:23.546Z,34.78
2022-12-18T18:06:50.937Z,34.33
2022-12-18T18:09:17.932Z,33.13
2022-12-18T18:12:03.994Z,37.22
2022-12-18T18:14:32.005Z,39.00
2022-12-18T18:17:01.126Z,45.50
2022-12-18T18:19:33.590Z,46.70
2022-12-18T18:22:01.545Z,40.40
2022-12-18T18:24:29.309Z,43.20
2022-12-18T18:26:56.487Z,34.35
2022-12-18T18:29:26.867Z,41.05
2022-12-18T18:31:54.830Z,41.63
2022-12-18T18:34:27.886Z,45.42
2022-12-18T18:36:55.089Z,47.90
2022-12-18T18:39:22.101Z,45.30
2022-12-18T18:41:49.920Z,46.75
2022-12-18T18:44:19.124Z,44.80
2022-12-18T18:46:47.441Z,43.60
2022-12-18T18:49:15.021Z,40.50
2022-12-18T18:51:42.755Z,43.88
2022-12-18T18:54:10.343Z,39.40
2022-12-18T18:57:12.010Z,34.65
2022-12-18T18:59:31.435Z,33.03
2022-12-18T19:02:04.321Z,34.60
2022-12-18T19:04:33.989Z,35.70
2022-12-18T19:07:02.110Z,41.78
2022-12-18T19:09:30.066Z,33.72
2022-12-18T19:12:16.274Z,36.72
2022-12-18T19:14:44.144Z,39.58
2022-12-18T19:17:11.117Z,41.22
2022-12-18T19:19:38.873Z,39.80
2022-12-18T19:22:05.832Z,41.30
2022-12-18T19:24:32.803Z,45.63
2022-12-18T19:26:59.770Z,40.58
2022-12-18T19:29:26.709Z,41.70
2022-12-18T19:31:53.721Z,43.03
2022-12-18T19:34:20.783Z,40.42
2022-12-18T19:36:48.012Z,46.10
2022-12-18T19:39:19.311Z,49.83
2022-12-18T19:41:47.297Z,43.65
2022-12-18T19:44:17.248Z,49.40
2022-12-18T19:46:46.289Z,43.55
2022-12-18T19:49:18.016Z,41.40
2022-12-18T19:51:45.748Z,55.70
2022-12-18T19:54:17.018Z,47.03
2022-12-18T19:56:45.321Z,40.25
2022-12-18T19:59:12.733Z,51.05
2022-12-18T20:01:40.116Z,45.80
2022-12-18T20:04:07.490Z,37.50
2022-12-18T20:06:46.136Z,39.95
2022-12-18T20:09:13.057Z,45.15
2022-12-18T20:11:41.828Z,49.75
2022-12-18T20:14:10.910Z,51.60
2022-12-18T20:16:38.364Z,51.83
2022-12-18T20:19:06.091Z,53.03
2022-12-18T20:21:33.674Z,50.20
2022-12-18T20:24:02.140Z,52.40
2022-12-18T20:26:29.507Z,56.75
2022-12-18T20:28:56.811Z,50.25
2022-12-18T20:31:24.506Z,60.17
2022-12-18T20:33:53.423Z,50.47
2022-12-18T20:36:24.668Z,51.15
2022-12-18T20:38:55.299Z,51.67
2022-12-18T20:41:25.293Z,54.08
2022-12-18T20:43:52.437Z,55.42
2022-12-18T20:46:20.577Z,57.65
2022-12-18T20:48:48.190Z,60.22
2022-12-18T20:51:19.083Z,58.75
2022-12-18T20:53:47.684Z,60.15
2022-12-18T20:56:21.634Z,59.58
2022-12-18T20:58:51.307Z,56.25
2022-12-18T21:01:23.981Z,52.65
2022-12-18T21:03:51.767Z,60.58
2022-12-18T21:06:21.612Z,59.00
2022-12-18T21:08:49.321Z,62.65
2022-12-18T21:11:41.911Z,56.10
2022-12-18T21:14:18.791Z,57.30
2022-12-18T21:16:47.015Z,55.13
2022-12-18T21:19:18.682Z,57.38
2022-12-18T21:21:46.445Z,55.15
2022-12-18T21:24:13.928Z,59.33
2022-12-18T21:26:45.702Z,53.40
2022-12-18T21:29:25.469Z,54.20
2022-12-18T21:31:54.768Z,52.45
2022-12-18T21:34:26.920Z,58.38
2022-12-18T21:36:56.572Z,54.13
2022-12-18T21:39:25.861Z,55.03
2022-12-18T21:42:11.728Z,52.58
2022-12-18T21:44:41.868Z,53.83
2022-12-18T21:47:20.131Z,58.03
2022-12-18T21:49:50.604Z,53.80
2022-12-18T21:52:17.801Z,50.65
2022-12-18T21:54:44.770Z,59.67
2022-12-18T21:57:13.743Z,56.88
2022-12-18T21:59:43.663Z,55.47
2022-12-18T22:02:16.469Z,54.05
2022-12-18T22:04:45.293Z,50.35
2022-12-18T22:07:15.181Z,59.33
2022-12-18T22:09:42.174Z,53.45
2022-12-18T22:12:13.066Z,55.72
2022-12-18T22:14:39.977Z,48.97
2022-12-18T22:17:07.104Z,48.00
2022-12-18T22:19:42.665Z,50.65
2022-12-18T22:22:10.105Z,51.40
2022-12-18T22:24:37.438Z,49.40
2022-12-18T22:27:04.465Z,47.15
2022-12-18T22:29:50.582Z,54.53
2022-12-18T22:32:25.595Z,51.80
2022-12-18T22:35:08.289Z,49.72
2022-12-18T22:37:37.507Z,49.47
2022-12-18T22:40:07.366Z,51.40
2022-12-18T22:42:34.642Z,49.40
2022-12-18T22:45:01.761Z,45.88
2022-12-18T22:47:30.479Z,50.47
2022-12-18T22:49:58.550Z,51.92
2022-12-18T22:52:25.878Z,51.42
2022-12-18T22:54:54.246Z,51.05
2022-12-18T22:57:23.300Z,47.97
2022-12-18T22:59:51.744Z,49.42
2022-12-18T23:02:19.761Z,55.88
2022-12-18T23:04:50.322Z,45.03
2022-12-18T23:07:17.795Z,54.25
2022-12-18T23:09:45.523Z,50.65
2022-12-18T23:12:16.672Z,49.97
2022-12-18T23:14:44.045Z,46.47
2022-12-18T23:17:11.229Z,51.75
2022-12-18T23:19:38.176Z,45.55
2022-12-18T23:22:11.375Z,46.65
2022-12-18T23:24:38.801Z,48.60
2022-12-18T23:27:05.767Z,45.70
2022-12-18T23:29:37.750Z,49.03
2022-12-18T23:32:05.042Z,47.78
2022-12-18T23:34:32.204Z,48.70
2022-12-18T23:36:59.169Z,49.67
2022-12-18T23:39:29.340Z,50.85
2022-12-18T23:41:58.855Z,51.03
2022-12-18T23:44:27.073Z,51.83
2022-12-18T23:46:54.986Z,48.10
2022-12-18T23:49:22.955Z,45.47
2022-12-18T23:51:50.440Z,46.17
2022-12-18T23:54:17.584Z,45.15
2022-12-18T23:56:49.672Z,48.42
2022-12-18T23:59:19.345Z,48.42
